createdAt,value
2022-09-03T00:01:53.759Z,56.10
2022-09-03T00:07:02.030Z,56.34
2022-09-03T00:12:10.647Z,56.66
2022-09-03T00:17:16.999Z,56.94
2022-09-03T00:22:22.958Z,57.04
2022-09-03T00:27:28.083Z,57.17
2022-09-03T00:32:39.046Z,57.29
2022-09-03T00:37:41.942Z,57.53
2022-09-03T00:42:49.875Z,57.59
2022-09-03T00:48:07.878Z,57.53
2022-09-03T00:53:14.725Z,57.88
2022-09-03T00:58:29.759Z,57.95
2022-09-03T01:03:39.946Z,58.14
2022-09-03T01:08:53.330Z,58.30
2022-09-03T01:14:02.500Z,58.60
2022-09-03T01:19:13.386Z,58.81
2022-09-03T01:24:49.639Z,58.89
2022-09-03T01:29:57.494Z,59.02
2022-09-03T01:35:04.889Z,58.95
2022-09-03T01:40:14.702Z,59.38
2022-09-03T01:45:35.644Z,59.41
2022-09-03T01:50:45.744Z,59.45
2022-09-03T01:55:59.895Z,59.30
2022-09-03T02:01:06.904Z,59.35
2022-09-03T02:06:10.064Z,59.64
2022-09-03T02:11:13.033Z,59.58
2022-09-03T02:16:21.181Z,59.60
2022-09-03T02:21:25.984Z,60.11
2022-09-03T02:26:28.758Z,60.07
2022-09-03T02:31:32.849Z,60.49
2022-09-03T02:36:38.995Z,60.63
2022-09-03T02:41:41.878Z,60.78
2022-09-03T02:46:49.833Z,60.88
2022-09-03T02:51:52.631Z,60.97
2022-09-03T02:56:55.699Z,61.45
2022-09-03T03:02:01.270Z,61.61
2022-09-03T03:07:04.259Z,61.84
2022-09-03T03:12:07.260Z,62.05
2022-09-03T03:17:11.338Z,62.27
2022-09-03T03:22:14.247Z,62.44
2022-09-03T03:27:17.227Z,62.72
2022-09-03T03:32:21.454Z,62.79
2022-09-03T03:37:24.170Z,63.09
2022-09-03T03:42:26.881Z,62.91
2022-09-03T03:47:32.195Z,63.19
2022-09-03T03:52:35.058Z,63.12
2022-09-03T03:57:37.787Z,63.00
2022-09-03T04:02:41.898Z,63.29
2022-09-03T04:07:45.005Z,63.21
2022-09-03T04:12:47.788Z,63.24
2022-09-03T04:17:52.870Z,63.48
2022-09-03T04:22:55.622Z,63.46
2022-09-03T04:27:58.652Z,63.65
2022-09-03T04:33:03.178Z,63.88
2022-09-03T04:38:05.939Z,64.04
2022-09-03T04:43:08.741Z,63.90
2022-09-03T04:48:13.585Z,63.94
2022-09-03T04:53:16.305Z,64.41
2022-09-03T04:58:19.121Z,64.10
2022-09-03T05:03:23.578Z,64.21
2022-09-03T05:08:26.575Z,64.18
2022-09-03T05:13:29.550Z,64.29
2022-09-03T05:18:35.740Z,64.14
2022-09-03T05:23:39.966Z,64.11
2022-09-03T05:28:44.080Z,64.10
2022-09-03T05:33:49.679Z,63.88
2022-09-03T05:38:54.288Z,63.83
2022-09-03T05:43:59.434Z,63.49
2022-09-03T05:49:05.498Z,63.54
2022-09-03T05:54:09.179Z,63.49
2022-09-03T05:59:13.701Z,63.45
2022-09-03T06:04:17.891Z,63.53
2022-09-03T06:09:23.148Z,63.47
2022-09-03T06:14:26.762Z,63.54
2022-09-03T06:19:30.978Z,63.45
2022-09-03T06:24:33.890Z,63.60
2022-09-03T06:29:39.868Z,63.25
2022-09-03T06:34:44.107Z,63.14
2022-09-03T06:39:46.997Z,63.26
2022-09-03T06:44:51.318Z,63.03
2022-09-03T06:49:55.380Z,62.91
2022-09-03T06:54:58.425Z,63.04
2022-09-03T07:00:02.631Z,62.83
2022-09-03T07:05:07.747Z,62.78
2022-09-03T07:10:12.065Z,62.58
2022-09-03T07:15:15.011Z,62.33
2022-09-03T07:20:20.641Z,62.10
2022-09-03T07:25:23.524Z,61.82
2022-09-03T07:30:26.655Z,61.61
2022-09-03T07:35:30.878Z,61.41
2022-09-03T07:40:34.162Z,61.25
2022-09-03T07:45:38.533Z,60.98
2022-09-03T07:50:42.893Z,60.83
2022-09-03T07:55:45.694Z,60.64
2022-09-03T08:00:49.059Z,60.29
2022-09-03T08:05:53.322Z,60.06
2022-09-03T08:10:56.750Z,59.78
2022-09-03T08:16:01.324Z,59.43
2022-09-03T08:21:07.503Z,59.23
2022-09-03T08:26:10.669Z,58.95
2022-09-03T08:31:16.206Z,58.60
2022-09-03T08:36:22.837Z,58.22
2022-09-03T08:41:30.961Z,57.72
2022-09-03T08:46:42.737Z,57.30
2022-09-03T08:51:49.111Z,57.25
2022-09-03T08:56:52.579Z,56.99
2022-09-03T09:01:58.651Z,56.62
2022-09-03T09:07:08.251Z,56.16
2022-09-03T09:12:17.667Z,55.87
2022-09-03T09:17:32.600Z,56.00
2022-09-03T09:22:39.915Z,55.57
2022-09-03T09:27:51.630Z,55.31
2022-09-03T09:32:56.202Z,55.01
2022-09-03T09:38:00.526Z,54.73
2022-09-03T09:43:12.274Z,54.32
2022-09-03T09:48:21.176Z,54.09
2022-09-03T09:53:28.147Z,53.69
2022-09-03T09:58:33.188Z,53.54
2022-09-03T10:03:36.181Z,52.88
2022-09-03T10:08:41.722Z,52.74
2022-09-03T10:13:48.032Z,52.32
2022-09-03T10:18:56.230Z,52.43
2022-09-03T10:24:07.398Z,51.63
2022-09-03T10:29:10.522Z,51.42
2022-09-03T10:34:18.711Z,51.17
2022-09-03T10:39:24.774Z,50.76
2022-09-03T10:44:43.727Z,49.98
2022-09-03T10:49:52.000Z,50.19
2022-09-03T10:55:14.009Z,49.79
2022-09-03T11:00:18.212Z,49.68
2022-09-03T11:05:26.748Z,49.13
2022-09-03T11:10:32.398Z,48.82
2022-09-03T11:15:39.228Z,47.87
2022-09-03T11:20:43.023Z,47.64
2022-09-03T11:25:51.011Z,46.27
2022-09-03T11:31:07.019Z,44.24
2022-09-03T11:36:12.339Z,39.19
2022-09-03T11:41:26.154Z,36.52
2022-09-03T11:46:31.746Z,36.98
2022-09-03T11:51:37.818Z,37.68
2022-09-03T11:56:43.758Z,38.96
2022-09-03T12:01:53.180Z,38.57
2022-09-03T12:07:04.641Z,37.95
2022-09-03T12:12:15.921Z,36.10
2022-09-03T12:17:28.930Z,35.55
2022-09-03T12:22:32.218Z,37.11
2022-09-03T12:27:36.287Z,37.75
2022-09-03T12:32:39.357Z,37.42
2022-09-03T12:48:44.152Z,35.81
2022-09-03T12:53:47.143Z,36.09
2022-09-03T12:58:56.052Z,36.18
2022-09-03T13:04:04.809Z,36.57
2022-09-03T13:09:09.404Z,36.72
2022-09-03T13:14:14.845Z,36.72
2022-09-03T13:19:23.370Z,36.96
2022-09-03T13:24:54.405Z,36.73
2022-09-03T13:30:05.400Z,36.63
2022-09-03T13:35:11.912Z,36.26
2022-09-03T13:40:23.251Z,36.65
2022-09-03T13:45:32.377Z,36.68
2022-09-03T13:50:42.602Z,35.84
2022-09-03T13:55:48.402Z,35.75
2022-09-03T14:00:56.003Z,36.06
2022-09-03T14:06:05.679Z,36.66
2022-09-03T14:11:20.868Z,35.87
2022-09-03T14:16:32.236Z,36.05
2022-09-03T14:21:37.418Z,36.01
2022-09-03T14:26:51.288Z,35.50
2022-09-03T14:32:16.591Z,35.07
2022-09-03T14:37:35.045Z,34.77
2022-09-03T14:42:54.553Z,34.88
2022-09-03T14:48:09.122Z,35.46
2022-09-03T14:53:22.458Z,34.90
2022-09-03T14:58:37.016Z,34.71
2022-09-03T15:04:17.610Z,35.04
2022-09-03T15:09:29.101Z,34.81
2022-09-03T15:14:37.108Z,33.42
2022-09-03T15:20:07.598Z,33.71
2022-09-03T15:25:20.594Z,36.82
2022-09-03T15:30:23.636Z,35.96
2022-09-03T15:35:40.234Z,35.07
2022-09-03T15:40:51.550Z,35.91
2022-09-03T15:45:58.355Z,35.48
2022-09-03T15:51:11.061Z,36.57
2022-09-03T15:56:19.774Z,37.53
2022-09-03T16:01:30.123Z,36.79
2022-09-03T16:06:40.269Z,37.46
2022-09-03T16:11:53.685Z,37.54
2022-09-03T16:17:01.854Z,37.08
2022-09-03T16:22:12.853Z,38.20
2022-09-03T16:27:18.864Z,39.00
2022-09-03T16:32:28.768Z,39.40
2022-09-03T16:37:39.121Z,39.74
2022-09-03T16:42:46.138Z,39.84
2022-09-03T16:47:58.346Z,39.92
2022-09-03T16:53:09.946Z,40.38
2022-09-03T16:58:18.938Z,40.19
2022-09-03T17:03:45.973Z,40.51
2022-09-03T17:08:58.392Z,40.60
2022-09-03T17:14:20.702Z,40.63
2022-09-03T17:19:28.705Z,41.05
2022-09-03T17:24:38.147Z,41.33
2022-09-03T17:29:53.761Z,41.52
2022-09-03T17:35:05.495Z,41.92
2022-09-03T17:40:20.038Z,42.45
2022-09-03T17:45:34.104Z,42.71
2022-09-03T17:50:46.270Z,43.10
2022-09-03T17:55:55.728Z,43.29
2022-09-03T18:01:04.242Z,43.51
2022-09-03T18:06:10.597Z,43.66
2022-09-03T18:11:16.084Z,44.13
2022-09-03T18:16:24.265Z,44.02
2022-09-03T18:21:47.367Z,44.62
2022-09-03T18:27:17.645Z,44.86
2022-09-03T18:32:38.221Z,44.88
2022-09-03T18:37:59.218Z,45.11
2022-09-03T18:43:28.492Z,45.35
2022-09-03T18:48:53.026Z,45.43
2022-09-03T18:54:21.625Z,45.60
2022-09-03T18:59:57.815Z,45.84
2022-09-03T19:05:26.643Z,46.29
2022-09-03T19:10:54.442Z,46.18
2022-09-03T19:16:21.379Z,46.39
2022-09-03T19:21:47.360Z,46.98
2022-09-03T19:27:47.399Z,46.89
2022-09-03T19:33:04.392Z,46.83
2022-09-03T19:38:32.601Z,46.91
2022-09-03T19:43:58.810Z,47.43
2022-09-03T19:49:28.728Z,47.48
2022-09-03T19:54:50.012Z,47.94
2022-09-03T20:00:11.195Z,48.01
2022-09-03T20:05:39.484Z,48.15
2022-09-03T20:10:43.625Z,48.64
2022-09-03T20:15:53.287Z,48.63
2022-09-03T20:21:06.096Z,49.01
2022-09-03T20:26:17.092Z,49.34
2022-09-03T20:31:25.025Z,49.60
2022-09-03T20:36:35.076Z,49.71
2022-09-03T20:41:46.776Z,50.02
2022-09-03T20:46:58.227Z,50.03
2022-09-03T20:52:07.437Z,50.66
2022-09-03T20:57:24.423Z,50.63
2022-09-03T21:02:37.810Z,50.91
2022-09-03T21:07:51.764Z,51.09
2022-09-03T21:13:00.512Z,51.60
2022-09-03T21:18:08.191Z,51.78
2022-09-03T21:23:19.417Z,52.09
2022-09-03T21:28:25.126Z,52.12
2022-09-03T21:33:30.068Z,52.48
2022-09-03T21:38:35.925Z,52.75
2022-09-03T21:43:43.837Z,52.81
2022-09-03T21:48:52.183Z,52.93
2022-09-03T21:53:59.223Z,53.00
2022-09-03T21:59:09.203Z,53.22
2022-09-03T22:04:12.449Z,53.20
2022-09-03T22:09:21.057Z,53.31
2022-09-03T22:14:24.755Z,53.33
2022-09-03T22:19:28.012Z,53.53
2022-09-03T22:24:39.451Z,53.82
2022-09-03T22:29:49.207Z,53.54
2022-09-03T22:35:02.801Z,54.02
2022-09-03T22:40:13.109Z,53.89
2022-09-03T22:45:34.817Z,53.84
2022-09-03T22:50:43.769Z,54.16
2022-09-03T22:55:53.266Z,54.11
2022-09-03T23:01:00.389Z,54.35
2022-09-03T23:06:07.166Z,54.38
2022-09-03T23:11:26.259Z,54.62
2022-09-03T23:16:37.758Z,54.70
2022-09-03T23:21:42.323Z,54.65
2022-09-03T23:26:48.740Z,54.45
2022-09-03T23:31:52.814Z,54.60
2022-09-03T23:37:32.027Z,55.12
2022-09-03T23:42:42.864Z,55.32
2022-09-03T23:47:53.915Z,55.37
2022-09-03T23:53:08.926Z,55.70
2022-09-03T23:58:21.158Z,55.55
